createdAt,value
2017-10-15T00:00:48.398Z,16.23
2017-10-15T00:03:15.799Z,15.67
2017-10-15T00:05:43.234Z,14.80
2017-10-15T00:08:11.033Z,14.73
2017-10-15T00:10:38.437Z,16.47
2017-10-15T00:13:05.885Z,15.73
2017-10-15T00:15:33.286Z,16.20
2017-10-15T00:18:00.742Z,16.23
2017-10-15T00:20:28.185Z,15.63
2017-10-15T00:22:55.570Z,16.60
2017-10-15T00:25:22.969Z,17.40
2017-10-15T00:27:50.412Z,16.47
2017-10-15T00:30:17.818Z,14.83
2017-10-15T00:32:45.252Z,15.33
2017-10-15T00:35:12.661Z,15.00
2017-10-15T00:37:40.092Z,16.20
2017-10-15T00:40:07.505Z,15.70
2017-10-15T00:42:34.908Z,14.83
2017-10-15T00:45:02.354Z,15.13
2017-10-15T00:47:29.758Z,15.60
2017-10-15T00:49:57.180Z,16.30
2017-10-15T00:52:24.586Z,15.83
2017-10-15T00:54:52.064Z,16.47
2017-10-15T00:57:19.478Z,15.77
2017-10-15T00:59:46.885Z,16.70
2017-10-15T01:02:14.277Z,15.83
2017-10-15T01:04:41.686Z,17.00
2017-10-15T01:07:09.134Z,16.40
2017-10-15T01:09:36.522Z,16.73
2017-10-15T01:12:03.949Z,16.43
2017-10-15T01:14:31.362Z,15.93
2017-10-15T01:16:58.794Z,18.07
2017-10-15T01:19:26.219Z,16.03
2017-10-15T01:21:53.637Z,16.10
2017-10-15T01:24:21.034Z,16.80
2017-10-15T01:26:48.454Z,16.13
2017-10-15T01:29:15.902Z,16.53
2017-10-15T01:31:43.269Z,16.67
2017-10-15T01:34:10.690Z,15.97
2017-10-15T01:36:38.102Z,17.07
2017-10-15T01:39:05.498Z,16.60
2017-10-15T01:41:32.954Z,16.07
2017-10-15T01:44:00.330Z,16.47
2017-10-15T01:46:27.769Z,17.63
2017-10-15T01:48:55.207Z,16.00
2017-10-15T01:51:22.606Z,17.63
2017-10-15T01:53:50.025Z,16.97
2017-10-15T01:56:17.486Z,17.57
2017-10-15T01:58:44.917Z,16.77
2017-10-15T02:01:12.348Z,16.97
2017-10-15T02:03:39.752Z,16.90
2017-10-15T02:06:07.168Z,15.73
2017-10-15T02:08:34.554Z,17.13
2017-10-15T02:11:01.983Z,17.73
2017-10-15T02:13:29.358Z,18.20
2017-10-15T02:15:56.769Z,18.40
2017-10-15T02:18:24.205Z,17.37
2017-10-15T02:20:51.611Z,17.70
2017-10-15T02:23:19.001Z,15.30
2017-10-15T02:25:46.443Z,16.87
2017-10-15T02:28:13.838Z,17.33
2017-10-15T02:30:41.248Z,17.03
2017-10-15T02:33:08.650Z,17.80
2017-10-15T02:35:36.061Z,17.30
2017-10-15T02:38:03.498Z,17.90
2017-10-15T02:40:30.912Z,17.13
2017-10-15T02:42:58.324Z,16.97
2017-10-15T02:45:25.775Z,17.13
2017-10-15T02:47:53.202Z,17.70
2017-10-15T02:50:21.138Z,17.10
2017-10-15T02:52:48.572Z,17.23
2017-10-15T02:55:15.994Z,17.30
2017-10-15T02:57:43.417Z,18.83
2017-10-15T03:00:10.825Z,17.57
2017-10-15T03:02:38.247Z,18.13
2017-10-15T03:05:05.691Z,17.10
2017-10-15T03:07:33.079Z,17.80
2017-10-15T03:10:00.556Z,19.17
2017-10-15T03:12:27.991Z,16.90
2017-10-15T03:14:55.385Z,17.70
2017-10-15T03:17:22.801Z,18.53
2017-10-15T03:19:50.219Z,17.63
2017-10-15T03:22:17.625Z,17.40
2017-10-15T03:24:45.390Z,19.07
2017-10-15T03:27:12.786Z,17.10
2017-10-15T03:29:40.197Z,17.57
2017-10-15T03:32:07.757Z,17.87
2017-10-15T03:34:35.146Z,19.63
2017-10-15T03:37:02.602Z,18.23
2017-10-15T03:39:30.051Z,18.73
2017-10-15T03:41:57.463Z,17.67
2017-10-15T03:44:24.858Z,18.73
2017-10-15T03:46:52.286Z,18.23
2017-10-15T03:49:19.691Z,18.03
2017-10-15T03:51:47.085Z,19.87
2017-10-15T03:54:14.521Z,17.60
2017-10-15T03:56:41.913Z,18.97
2017-10-15T03:59:09.317Z,19.50
2017-10-15T04:01:36.726Z,17.83
2017-10-15T04:04:04.171Z,18.40
2017-10-15T04:06:31.594Z,18.50
2017-10-15T04:08:59.018Z,18.47
2017-10-15T04:11:26.430Z,19.37
2017-10-15T04:13:53.818Z,17.10
2017-10-15T04:16:21.244Z,18.27
2017-10-15T04:18:48.659Z,19.13
2017-10-15T04:21:16.075Z,18.13
2017-10-15T04:23:43.497Z,18.40
2017-10-15T04:26:10.943Z,17.70
2017-10-15T04:28:38.650Z,19.80
2017-10-15T04:31:06.072Z,18.97
2017-10-15T04:33:33.470Z,17.67
2017-10-15T04:36:00.899Z,19.00
2017-10-15T04:38:28.310Z,18.47
2017-10-15T04:40:55.718Z,17.97
2017-10-15T04:43:23.146Z,17.60
2017-10-15T04:45:50.562Z,19.63
2017-10-15T04:48:17.986Z,20.80
2017-10-15T04:50:45.377Z,20.83
2017-10-15T04:53:12.802Z,19.80
2017-10-15T04:55:40.482Z,20.67
2017-10-15T04:58:07.910Z,20.67
2017-10-15T05:00:35.352Z,19.83
2017-10-15T05:03:02.738Z,19.90
2017-10-15T05:05:30.158Z,19.70
2017-10-15T05:08:02.161Z,18.90
2017-10-15T05:10:29.592Z,18.57
2017-10-15T05:12:56.985Z,20.70
2017-10-15T05:15:24.437Z,19.60
2017-10-15T05:17:51.885Z,18.47
2017-10-15T05:20:19.266Z,19.40
2017-10-15T05:22:46.691Z,19.20
2017-10-15T05:25:14.117Z,20.27
2017-10-15T05:27:41.521Z,18.57
2017-10-15T05:30:08.927Z,18.83
2017-10-15T05:32:36.353Z,19.50
2017-10-15T05:35:03.793Z,20.20
2017-10-15T05:37:31.219Z,21.20
2017-10-15T05:39:58.734Z,19.67
2017-10-15T05:42:26.146Z,21.37
2017-10-15T05:44:53.557Z,19.57
2017-10-15T05:47:20.950Z,20.20
2017-10-15T05:49:48.343Z,19.90
2017-10-15T05:52:15.822Z,18.10
2017-10-15T05:54:43.209Z,20.00
2017-10-15T05:57:10.621Z,18.83
2017-10-15T05:59:38.054Z,19.07
2017-10-15T06:02:05.446Z,21.50
2017-10-15T06:04:32.853Z,19.73
2017-10-15T06:07:00.263Z,18.93
2017-10-15T06:09:27.665Z,18.93
2017-10-15T06:11:55.081Z,18.97
2017-10-15T06:14:22.546Z,19.63
2017-10-15T06:16:49.925Z,18.00
2017-10-15T06:19:17.314Z,19.97
2017-10-15T06:21:44.746Z,18.90
2017-10-15T06:24:13.344Z,18.43
2017-10-15T06:26:40.787Z,18.47
2017-10-15T06:29:08.254Z,19.50
2017-10-15T06:31:35.680Z,19.90
2017-10-15T06:34:03.081Z,19.77
2017-10-15T06:36:30.498Z,20.17
2017-10-15T06:38:57.898Z,18.23
2017-10-15T06:41:25.290Z,18.33
2017-10-15T06:43:52.694Z,18.23
2017-10-15T06:46:23.221Z,16.20
2017-10-15T06:48:50.607Z,16.83
2017-10-15T06:51:18.017Z,19.03
2017-10-15T06:53:45.421Z,16.53
2017-10-15T06:56:12.823Z,16.63
2017-10-15T06:58:40.229Z,17.20
2017-10-15T07:01:07.617Z,17.70
2017-10-15T07:03:35.010Z,17.70
2017-10-15T07:06:02.487Z,18.00
2017-10-15T07:08:29.878Z,17.47
2017-10-15T07:10:57.278Z,17.87
2017-10-15T07:13:24.700Z,18.37
2017-10-15T07:15:52.085Z,17.73
2017-10-15T07:18:19.481Z,18.50
2017-10-15T07:20:46.897Z,17.00
2017-10-15T07:23:14.295Z,18.37
2017-10-15T07:25:41.686Z,17.40
2017-10-15T07:28:09.095Z,17.20
2017-10-15T07:30:36.489Z,18.23
2017-10-15T07:33:03.900Z,16.77
2017-10-15T07:35:31.309Z,17.30
2017-10-15T07:37:58.694Z,18.20
2017-10-15T07:40:26.087Z,17.20
2017-10-15T07:42:54.438Z,17.50
2017-10-15T07:45:21.830Z,17.93
2017-10-15T07:47:49.230Z,18.63
2017-10-15T07:50:16.640Z,18.33
2017-10-15T07:52:44.058Z,17.70
2017-10-15T07:55:11.517Z,18.13
2017-10-15T07:57:38.958Z,17.97
2017-10-15T08:00:06.451Z,16.83
2017-10-15T08:02:33.866Z,16.73
2017-10-15T08:05:01.291Z,16.03
2017-10-15T08:07:28.719Z,15.73
2017-10-15T08:09:56.114Z,15.83
2017-10-15T08:12:23.523Z,14.77
2017-10-15T08:14:50.910Z,15.50
2017-10-15T08:17:18.340Z,14.43
2017-10-15T08:19:45.786Z,15.37
2017-10-15T08:22:13.205Z,15.40
2017-10-15T08:24:40.646Z,14.37
2017-10-15T08:27:08.157Z,14.07
2017-10-15T08:29:35.635Z,15.43
2017-10-15T08:32:03.074Z,13.40
2017-10-15T08:34:30.504Z,13.13
2017-10-15T08:36:57.959Z,13.33
2017-10-15T08:39:25.334Z,13.97
2017-10-15T08:41:52.746Z,13.77
2017-10-15T08:44:20.222Z,13.97
2017-10-15T08:46:48.533Z,15.03
2017-10-15T08:49:16.521Z,14.40
2017-10-15T08:51:43.930Z,12.93
2017-10-15T08:54:12.252Z,14.80
2017-10-15T08:56:40.558Z,14.00
2017-10-15T08:59:08.178Z,13.80
2017-10-15T09:01:36.339Z,12.27
2017-10-15T09:04:03.830Z,11.97
2017-10-15T09:06:31.990Z,11.80
2017-10-15T09:09:00.214Z,12.00
2017-10-15T09:11:27.710Z,12.83
2017-10-15T09:13:55.275Z,11.37
2017-10-15T09:16:23.424Z,13.53
2017-10-15T09:18:51.643Z,10.50
2017-10-15T09:21:19.030Z,11.53
2017-10-15T09:23:46.457Z,11.23
2017-10-15T09:26:14.775Z,11.70
2017-10-15T09:28:43.269Z,12.10
2017-10-15T09:31:11.303Z,12.27
2017-10-15T09:33:38.714Z,12.23
2017-10-15T09:36:06.114Z,12.43
2017-10-15T09:38:33.539Z,11.23
2017-10-15T09:41:00.929Z,12.80
2017-10-15T09:43:28.356Z,12.30
2017-10-15T09:45:55.773Z,12.43
2017-10-15T09:48:23.210Z,14.07
2017-10-15T09:50:50.646Z,12.97
2017-10-15T09:53:18.058Z,12.53
2017-10-15T09:55:45.465Z,12.43
2017-10-15T09:58:12.863Z,12.90
2017-10-15T10:00:40.305Z,11.90
2017-10-15T10:03:07.807Z,12.27
2017-10-15T10:05:35.218Z,13.47
2017-10-15T10:08:02.617Z,12.93
2017-10-15T10:10:30.052Z,13.67
2017-10-15T10:12:57.466Z,13.30
2017-10-15T10:15:24.863Z,12.50
2017-10-15T10:17:52.275Z,13.93
2017-10-15T10:20:19.670Z,12.80
2017-10-15T10:22:47.106Z,13.93
2017-10-15T10:25:14.586Z,12.70
2017-10-15T10:27:41.977Z,13.40
2017-10-15T10:30:09.371Z,12.03
2017-10-15T10:32:38.742Z,11.73
2017-10-15T10:35:06.165Z,12.77
2017-10-15T10:37:33.562Z,12.47
2017-10-15T10:40:00.974Z,12.00
2017-10-15T10:42:28.382Z,10.80
2017-10-15T10:44:55.824Z,12.73
2017-10-15T10:47:23.212Z,12.23
2017-10-15T10:49:50.609Z,12.43
2017-10-15T10:52:18.023Z,13.40
2017-10-15T10:54:45.734Z,12.40
2017-10-15T10:57:13.127Z,12.70
2017-10-15T10:59:40.510Z,12.40
2017-10-15T11:02:07.955Z,13.10
2017-10-15T11:04:50.500Z,11.43
2017-10-15T11:07:17.909Z,11.77
2017-10-15T11:09:45.369Z,12.07
2017-10-15T11:12:12.770Z,11.67
2017-10-15T11:14:40.246Z,12.97
2017-10-15T11:17:07.663Z,12.50
2017-10-15T11:19:35.098Z,12.30
2017-10-15T11:22:02.521Z,13.70
2017-10-15T11:24:29.955Z,14.17
2017-10-15T11:26:57.398Z,13.10
2017-10-15T11:29:24.855Z,13.93
2017-10-15T11:31:52.281Z,12.73
2017-10-15T11:34:19.689Z,14.00
2017-10-15T11:36:47.106Z,12.90
2017-10-15T11:39:14.520Z,12.80
2017-10-15T11:41:41.937Z,12.53
2017-10-15T11:44:09.347Z,13.70
2017-10-15T11:46:36.765Z,13.40
2017-10-15T11:49:04.183Z,14.90
2017-10-15T11:51:31.574Z,13.67
2017-10-15T11:53:58.979Z,14.30
2017-10-15T11:56:26.370Z,14.00
2017-10-15T11:58:53.821Z,14.60
2017-10-15T12:01:21.222Z,13.83
2017-10-15T12:03:48.641Z,13.87
2017-10-15T12:06:16.049Z,15.03
2017-10-15T12:08:43.486Z,14.97
2017-10-15T12:11:10.885Z,14.00
2017-10-15T12:13:38.301Z,13.10
2017-10-15T12:16:05.740Z,12.40
2017-10-15T12:18:33.166Z,14.00
2017-10-15T12:21:00.591Z,14.60
2017-10-15T12:23:28.011Z,14.33
2017-10-15T12:25:55.419Z,15.17
2017-10-15T12:28:22.827Z,14.60
2017-10-15T12:30:50.222Z,13.27
2017-10-15T12:33:17.610Z,13.10
2017-10-15T12:35:45.019Z,13.33
2017-10-15T12:38:12.410Z,14.17
2017-10-15T12:40:39.802Z,14.23
2017-10-15T12:43:07.218Z,13.77
2017-10-15T12:45:34.606Z,12.67
2017-10-15T12:48:02.001Z,14.87
2017-10-15T12:50:29.405Z,14.10
2017-10-15T12:52:56.789Z,13.67
2017-10-15T12:55:24.182Z,15.23
2017-10-15T12:57:51.605Z,13.50
2017-10-15T13:00:18.993Z,13.80
2017-10-15T13:02:46.391Z,14.87
2017-10-15T13:05:13.802Z,15.10
2017-10-15T13:07:41.198Z,13.67
2017-10-15T13:10:08.590Z,13.93
2017-10-15T13:12:36.913Z,14.10
2017-10-15T13:15:04.826Z,14.37
2017-10-15T13:17:32.214Z,14.73
2017-10-15T13:19:59.652Z,15.63
2017-10-15T13:22:27.113Z,14.63
2017-10-15T13:24:54.506Z,15.57
2017-10-15T13:27:21.928Z,14.10
2017-10-15T13:29:49.314Z,15.90
2017-10-15T13:32:16.706Z,16.30
2017-10-15T13:34:44.127Z,14.63
2017-10-15T13:37:11.996Z,13.73
2017-10-15T13:39:41.014Z,13.33
2017-10-15T13:42:08.430Z,14.53
2017-10-15T13:44:36.938Z,15.07
2017-10-15T13:47:04.322Z,14.80
2017-10-15T13:49:31.737Z,14.33
2017-10-15T13:52:00.142Z,14.00
2017-10-15T13:54:27.541Z,15.17
2017-10-15T13:56:54.961Z,14.53
2017-10-15T13:59:22.355Z,15.07
2017-10-15T14:01:49.775Z,14.83
2017-10-15T14:04:17.170Z,15.17
2017-10-15T14:06:44.561Z,15.27
2017-10-15T14:09:11.954Z,13.80
2017-10-15T14:11:39.453Z,14.40
2017-10-15T14:14:06.826Z,14.43
2017-10-15T14:16:34.227Z,19.70
2017-10-15T14:19:01.643Z,14.07
2017-10-15T14:21:29.034Z,13.40
2017-10-15T14:23:56.434Z,15.43
2017-10-15T14:26:23.844Z,15.67
2017-10-15T14:28:51.238Z,14.63
2017-10-15T14:31:18.634Z,16.67
2017-10-15T14:33:46.054Z,16.00
2017-10-15T14:36:13.450Z,16.97
2017-10-15T14:38:40.846Z,16.30
2017-10-15T14:41:08.408Z,15.87
2017-10-15T14:43:35.798Z,15.73
2017-10-15T14:46:03.194Z,15.90
2017-10-15T14:48:30.598Z,15.37
2017-10-15T14:50:58.002Z,16.77
2017-10-15T14:53:25.398Z,16.93
2017-10-15T14:55:52.815Z,15.53
2017-10-15T14:58:20.233Z,16.17
2017-10-15T15:00:47.607Z,16.13
2017-10-15T15:03:15.458Z,16.17
2017-10-15T15:05:42.850Z,15.80
2017-10-15T15:08:10.279Z,16.37
2017-10-15T15:10:37.686Z,16.03
2017-10-15T15:13:05.084Z,15.80
2017-10-15T15:15:32.521Z,16.43
2017-10-15T15:17:59.937Z,17.23
2017-10-15T15:20:27.334Z,15.80
2017-10-15T15:22:54.742Z,15.87
2017-10-15T15:25:22.173Z,16.57
2017-10-15T15:27:49.570Z,16.77
2017-10-15T15:30:16.994Z,16.07
2017-10-15T15:32:44.422Z,16.23
2017-10-15T15:35:12.706Z,15.83
2017-10-15T15:37:40.128Z,17.50
2017-10-15T15:40:07.634Z,17.67
2017-10-15T15:42:35.033Z,18.67
2017-10-15T15:45:02.415Z,17.40
2017-10-15T15:47:29.839Z,17.10
2017-10-15T15:49:57.254Z,16.17
2017-10-15T15:52:24.659Z,17.67
2017-10-15T15:54:52.086Z,17.23
2017-10-15T15:57:19.550Z,17.67
2017-10-15T15:59:46.959Z,18.13
2017-10-15T16:02:14.368Z,15.17
2017-10-15T16:04:41.798Z,15.87
2017-10-15T16:07:09.522Z,17.07
2017-10-15T16:09:36.974Z,16.93
2017-10-15T16:12:05.171Z,15.67
2017-10-15T16:14:41.061Z,16.60
2017-10-15T16:17:08.905Z,16.13
2017-10-15T16:19:38.284Z,17.67
2017-10-15T16:22:06.830Z,15.57
2017-10-15T16:27:37.066Z,16.07
2017-10-15T16:30:04.489Z,16.87
2017-10-15T16:32:32.814Z,16.60
2017-10-15T16:35:02.964Z,17.07
2017-10-15T16:37:31.001Z,16.70
2017-10-15T16:39:58.408Z,17.00
2017-10-15T16:42:25.839Z,16.03
2017-10-15T16:44:53.255Z,16.80
2017-10-15T16:47:20.634Z,16.47
2017-10-15T16:49:48.055Z,14.83
2017-10-15T16:52:15.487Z,16.37
2017-10-15T16:54:42.879Z,15.90
2017-10-15T16:57:10.285Z,16.93
2017-10-15T16:59:37.710Z,15.50
2017-10-15T17:02:05.151Z,16.20
2017-10-15T17:04:32.611Z,15.50
2017-10-15T17:07:00.042Z,16.07
2017-10-15T17:09:27.777Z,15.83
2017-10-15T17:11:55.511Z,15.60
2017-10-15T17:14:22.894Z,15.77
2017-10-15T17:16:50.336Z,16.20
2017-10-15T17:19:17.758Z,16.43
2017-10-15T17:21:45.159Z,15.80
2017-10-15T17:24:12.580Z,16.37
2017-10-15T17:26:39.981Z,15.80
2017-10-15T17:29:07.401Z,17.20
2017-10-15T17:31:34.793Z,16.83
2017-10-15T17:34:02.218Z,15.60
2017-10-15T17:36:29.638Z,16.50
2017-10-15T17:38:57.138Z,16.93
2017-10-15T17:41:24.627Z,16.37
2017-10-15T17:43:52.023Z,15.53
2017-10-15T17:46:19.418Z,17.63
2017-10-15T17:48:46.863Z,17.43
2017-10-15T17:51:14.287Z,17.43
2017-10-15T17:53:41.695Z,17.30
2017-10-15T17:56:09.126Z,16.73
2017-10-15T17:58:36.526Z,16.93
2017-10-15T18:01:03.943Z,17.60
2017-10-15T18:03:31.352Z,18.30
2017-10-15T18:05:58.793Z,17.87
2017-10-15T18:08:26.198Z,17.70
2017-10-15T18:10:53.644Z,17.40
2017-10-15T18:13:21.042Z,17.77
2017-10-15T18:15:48.457Z,18.97
2017-10-15T18:18:15.908Z,18.60
2017-10-15T18:20:43.321Z,18.33
2017-10-15T18:23:10.765Z,18.77
2017-10-15T18:25:38.185Z,17.70
2017-10-15T18:28:05.606Z,18.27
2017-10-15T18:30:33.004Z,18.67
2017-10-15T18:33:01.410Z,18.97
2017-10-15T18:35:28.807Z,19.30
2017-10-15T18:37:56.242Z,19.23
2017-10-15T18:40:23.666Z,20.10
2017-10-15T18:42:51.082Z,18.90
2017-10-15T18:45:18.474Z,21.23
2017-10-15T18:47:45.922Z,19.53
2017-10-15T18:50:13.325Z,18.20
2017-10-15T18:52:40.750Z,19.63
2017-10-15T18:55:08.193Z,19.20
2017-10-15T18:57:35.614Z,18.80
2017-10-15T19:00:03.046Z,19.40
2017-10-15T19:02:30.495Z,19.50
2017-10-15T19:04:57.886Z,19.63
2017-10-15T19:07:25.320Z,18.53
2017-10-15T19:09:52.738Z,19.40
2017-10-15T19:12:20.179Z,19.03
2017-10-15T19:14:47.560Z,21.20
2017-10-15T19:17:15.021Z,20.50
2017-10-15T19:19:42.419Z,19.90
2017-10-15T19:22:09.806Z,20.50
2017-10-15T19:24:37.242Z,21.20
2017-10-15T19:27:04.657Z,20.60
2017-10-15T19:29:32.057Z,20.87
2017-10-15T19:31:59.599Z,20.57
2017-10-15T19:34:26.991Z,20.57
2017-10-15T19:36:54.383Z,20.50
2017-10-15T19:39:21.821Z,22.17
2017-10-15T19:41:49.198Z,22.23
2017-10-15T19:44:16.590Z,22.47
2017-10-15T19:46:43.998Z,21.00
2017-10-15T19:49:11.470Z,21.20
2017-10-15T19:51:38.866Z,21.47
2017-10-15T19:54:06.290Z,21.13
2017-10-15T19:56:33.670Z,20.73
2017-10-15T19:59:01.062Z,22.23
2017-10-15T20:01:28.481Z,21.20
2017-10-15T20:03:56.201Z,21.60
2017-10-15T20:06:23.595Z,20.60
2017-10-15T20:08:51.012Z,21.70
2017-10-15T20:11:18.385Z,21.57
2017-10-15T20:13:45.777Z,22.37
2017-10-15T20:16:13.201Z,22.40
2017-10-15T20:18:40.589Z,22.40
2017-10-15T20:21:07.989Z,22.23
2017-10-15T20:23:35.413Z,22.77
2017-10-15T20:26:03.214Z,23.00
2017-10-15T20:28:30.605Z,23.40
2017-10-15T20:30:58.014Z,23.17
2017-10-15T20:33:25.400Z,23.20
2017-10-15T20:35:52.789Z,23.20
2017-10-15T20:38:20.195Z,23.93
2017-10-15T20:40:47.583Z,22.87
2017-10-15T20:43:14.973Z,22.10
2017-10-15T20:45:42.377Z,23.30
2017-10-15T20:48:09.773Z,24.90
2017-10-15T20:50:37.160Z,23.50
2017-10-15T20:53:04.562Z,23.80
2017-10-15T20:55:31.953Z,23.97
2017-10-15T20:57:59.342Z,24.63
2017-10-15T21:00:26.769Z,24.97
2017-10-15T21:02:54.158Z,23.40
2017-10-15T21:05:21.554Z,23.50
2017-10-15T21:07:48.959Z,23.30
2017-10-15T21:10:16.346Z,24.23
2017-10-15T21:12:43.739Z,23.80
2017-10-15T21:15:11.243Z,23.20
2017-10-15T21:17:38.626Z,23.50
2017-10-15T21:20:06.021Z,22.80
2017-10-15T21:22:33.453Z,22.80
2017-10-15T21:25:00.846Z,23.00
2017-10-15T21:27:28.233Z,22.87
2017-10-15T21:29:55.641Z,21.70
2017-10-15T21:32:23.033Z,23.00
2017-10-15T21:34:50.422Z,22.63
2017-10-15T21:37:17.925Z,22.63
2017-10-15T21:39:45.365Z,24.50
2017-10-15T21:42:12.737Z,24.83
2017-10-15T21:44:40.239Z,22.93
2017-10-15T21:47:07.630Z,23.00
2017-10-15T21:49:35.026Z,21.83
2017-10-15T21:52:02.442Z,22.37
2017-10-15T21:54:29.838Z,22.50
2017-10-15T21:56:57.226Z,20.97
2017-10-15T21:59:24.637Z,22.37
2017-10-15T22:01:52.031Z,22.43
2017-10-15T22:04:19.421Z,20.93
2017-10-15T22:06:46.847Z,23.40
2017-10-15T22:09:14.239Z,22.17
2017-10-15T22:11:41.630Z,21.73
2017-10-15T22:14:09.051Z,23.03
2017-10-15T22:16:36.449Z,22.53
2017-10-15T22:19:03.839Z,22.87
2017-10-15T22:21:36.931Z,21.50
2017-10-15T22:24:04.318Z,22.03
2017-10-15T22:26:31.706Z,23.50
2017-10-15T22:28:59.115Z,23.13
2017-10-15T22:31:26.505Z,22.17
2017-10-15T22:33:53.908Z,23.17
2017-10-15T22:36:21.334Z,22.93
2017-10-15T22:38:48.725Z,22.70
2017-10-15T22:41:16.114Z,24.90
2017-10-15T22:43:43.539Z,22.93
2017-10-15T22:46:10.926Z,24.33
2017-10-15T22:48:38.318Z,24.67
2017-10-15T22:51:05.718Z,21.83
2017-10-15T22:53:33.109Z,24.73
2017-10-15T22:56:00.506Z,22.17
2017-10-15T22:58:27.921Z,23.90
2017-10-15T23:00:55.315Z,23.33
2017-10-15T23:03:22.713Z,22.13
2017-10-15T23:05:50.106Z,24.50
2017-10-15T23:08:17.502Z,24.57
2017-10-15T23:10:44.894Z,24.07
2017-10-15T23:13:12.299Z,23.83
2017-10-15T23:15:39.690Z,23.50
2017-10-15T23:18:07.081Z,24.73
2017-10-15T23:20:34.502Z,23.30
2017-10-15T23:23:01.907Z,23.23
2017-10-15T23:25:29.302Z,23.60
2017-10-15T23:27:56.725Z,23.43
2017-10-15T23:30:24.110Z,24.10
2017-10-15T23:32:51.497Z,23.80
2017-10-15T23:35:18.914Z,24.17
2017-10-15T23:37:46.302Z,24.13
2017-10-15T23:40:13.698Z,24.50
2017-10-15T23:42:41.107Z,23.40
2017-10-15T23:45:08.518Z,24.40
2017-10-15T23:47:35.905Z,24.07
2017-10-15T23:50:03.311Z,23.57
2017-10-15T23:52:30.705Z,25.33
2017-10-15T23:54:58.098Z,24.23
2017-10-15T23:57:25.497Z,24.60
2017-10-15T23:59:52.896Z,25.70
